createdAt,value
2019-05-06T00:01:35.508Z,5.23
2019-05-06T00:05:01.111Z,4.80
2019-05-06T00:08:26.696Z,4.80
2019-05-06T00:11:54.361Z,3.87
2019-05-06T00:15:19.858Z,5.83
2019-05-06T00:18:45.466Z,4.70
2019-05-06T00:22:11.070Z,4.80
2019-05-06T00:25:38.293Z,5.17
2019-05-06T00:29:05.603Z,4.60
2019-05-06T00:32:31.183Z,5.17
2019-05-06T00:35:56.776Z,5.80
2019-05-06T00:39:26.960Z,5.07
2019-05-06T00:42:54.569Z,5.20
2019-05-06T00:46:20.152Z,5.10
2019-05-06T00:49:45.859Z,4.60
2019-05-06T00:53:14.178Z,5.23
2019-05-06T00:56:39.783Z,5.50
2019-05-06T01:00:07.229Z,4.73
2019-05-06T01:03:34.702Z,5.10
2019-05-06T01:07:00.479Z,5.13
2019-05-06T01:10:27.479Z,5.63
2019-05-06T01:13:57.402Z,5.73
2019-05-06T01:17:24.334Z,5.23
2019-05-06T01:20:54.017Z,4.97
2019-05-06T01:24:19.225Z,5.53
2019-05-06T01:27:45.880Z,5.83
2019-05-06T01:31:11.473Z,6.17
2019-05-06T01:34:37.081Z,5.93
2019-05-06T01:38:24.283Z,5.27
2019-05-06T01:41:49.446Z,6.17
2019-05-06T01:45:15.713Z,6.40
2019-05-06T01:48:49.955Z,5.27
2019-05-06T01:52:15.570Z,5.27
2019-05-06T01:55:41.153Z,5.33
2019-05-06T01:59:07.328Z,4.50
2019-05-06T02:02:34.354Z,5.80
2019-05-06T02:06:00.118Z,4.77
2019-05-06T02:09:25.976Z,5.40
2019-05-06T02:12:53.894Z,6.43
2019-05-06T02:16:18.875Z,5.53
2019-05-06T02:19:44.467Z,5.63
2019-05-06T02:23:11.690Z,5.70
2019-05-06T02:26:37.337Z,5.40
2019-05-06T02:30:11.670Z,6.57
2019-05-06T02:33:47.973Z,6.17
2019-05-06T02:37:14.736Z,5.80
2019-05-06T02:40:42.662Z,5.73
2019-05-06T02:44:12.961Z,5.40
2019-05-06T02:47:53.848Z,5.60
2019-05-06T02:51:24.182Z,5.30
2019-05-06T02:54:49.588Z,6.10
2019-05-06T02:58:15.207Z,5.63
2019-05-06T03:01:43.204Z,6.20
2019-05-06T03:05:08.223Z,5.97
2019-05-06T03:08:33.954Z,6.30
2019-05-06T03:12:03.483Z,6.50
2019-05-06T03:15:27.926Z,6.60
2019-05-06T03:18:53.671Z,6.47
2019-05-06T03:22:27.380Z,6.27
2019-05-06T03:25:48.229Z,6.00
2019-05-06T03:29:13.876Z,6.30
2019-05-06T03:33:14.241Z,6.17
2019-05-06T03:36:16.390Z,6.03
2019-05-06T03:39:34.243Z,6.67
2019-05-06T03:43:02.626Z,6.30
2019-05-06T03:46:35.921Z,6.40
2019-05-06T03:50:04.724Z,6.87
2019-05-06T03:53:33.360Z,5.93
2019-05-06T03:56:59.531Z,6.77
2019-05-06T04:00:25.426Z,5.93
2019-05-06T04:03:55.882Z,6.63
2019-05-06T04:07:19.065Z,6.63
2019-05-06T04:10:45.590Z,6.20
2019-05-06T04:14:13.929Z,7.07
2019-05-06T04:17:44.289Z,6.80
2019-05-06T04:21:10.397Z,6.47
2019-05-06T04:24:43.551Z,6.70
2019-05-06T04:28:13.869Z,7.23
2019-05-06T04:31:39.784Z,6.90
2019-05-06T04:35:07.354Z,6.53
2019-05-06T04:38:33.966Z,7.03
2019-05-06T04:41:59.574Z,6.80
2019-05-06T04:45:25.162Z,7.80
2019-05-06T04:48:53.597Z,7.80
2019-05-06T04:52:18.381Z,7.03
2019-05-06T04:55:44.190Z,7.53
2019-05-06T04:59:09.841Z,7.70
2019-05-06T05:02:36.751Z,7.77
2019-05-06T05:06:05.692Z,8.40
2019-05-06T05:09:32.601Z,8.27
2019-05-06T05:13:07.037Z,6.87
2019-05-06T05:16:37.231Z,6.80
2019-05-06T05:20:03.272Z,7.63
2019-05-06T05:23:28.860Z,7.83
2019-05-06T05:26:54.547Z,7.00
2019-05-06T05:30:21.905Z,7.23
2019-05-06T05:33:47.682Z,6.13
2019-05-06T05:37:13.276Z,8.23
2019-05-06T05:40:39.213Z,6.97
2019-05-06T05:44:19.468Z,7.67
2019-05-06T05:47:46.026Z,6.47
2019-05-06T05:51:12.750Z,7.13
2019-05-06T05:54:38.472Z,7.77
2019-05-06T05:58:04.495Z,7.50
2019-05-06T06:01:32.461Z,7.10
2019-05-06T06:04:57.947Z,7.40
2019-05-06T06:08:24.832Z,7.07
2019-05-06T06:11:53.401Z,6.63
2019-05-06T06:15:29.339Z,6.50
2019-05-06T06:18:59.964Z,7.13
2019-05-06T06:22:27.382Z,6.83
2019-05-06T06:25:53.381Z,5.53
2019-05-06T06:29:19.338Z,6.43
2019-05-06T06:32:45.017Z,6.93
2019-05-06T06:36:16.300Z,6.27
2019-05-06T06:39:43.734Z,6.77
2019-05-06T06:43:12.428Z,8.37
2019-05-06T06:46:38.196Z,6.70
2019-05-06T06:50:04.523Z,10.90
2019-05-06T06:53:30.107Z,5.93
2019-05-06T06:57:05.081Z,5.17
2019-05-06T07:00:24.597Z,5.03
2019-05-06T07:03:53.496Z,6.57
2019-05-06T07:07:22.713Z,4.97
2019-05-06T07:10:48.070Z,5.57
2019-05-06T07:14:15.397Z,4.50
2019-05-06T07:17:41.885Z,4.33
2019-05-06T07:21:09.228Z,4.60
2019-05-06T07:24:34.978Z,3.27
2019-05-06T07:28:02.806Z,3.27
2019-05-06T07:31:27.880Z,2.30
2019-05-06T07:34:53.872Z,3.43
2019-05-06T07:38:19.522Z,3.93
2019-05-06T07:41:46.784Z,4.50
2019-05-06T07:45:32.921Z,4.07
2019-05-06T07:48:58.694Z,4.30
2019-05-06T07:52:24.343Z,3.30
2019-05-06T07:55:52.372Z,2.73
2019-05-06T07:59:17.269Z,3.73
2019-05-06T08:02:42.891Z,3.63
2019-05-06T08:06:08.455Z,3.40
2019-05-06T08:09:34.251Z,3.40
2019-05-06T08:13:02.479Z,3.67
2019-05-06T08:16:29.283Z,3.00
2019-05-06T08:19:54.862Z,2.30
2019-05-06T08:23:22.050Z,2.53
2019-05-06T08:26:48.893Z,3.00
2019-05-06T08:30:14.922Z,2.67
2019-05-06T08:33:40.612Z,2.40
2019-05-06T08:37:07.861Z,2.73
2019-05-06T08:40:33.445Z,3.10
2019-05-06T08:43:59.526Z,3.17
2019-05-06T08:47:25.107Z,2.73
2019-05-06T08:50:55.289Z,2.80
2019-05-06T08:54:32.357Z,3.03
2019-05-06T08:57:57.626Z,2.17
2019-05-06T09:01:32.578Z,2.70
2019-05-06T09:04:58.333Z,2.67
2019-05-06T09:08:24.851Z,2.70
2019-05-06T09:11:50.439Z,2.87
2019-05-06T09:15:16.079Z,2.97
2019-05-06T09:18:42.513Z,2.53
2019-05-06T09:22:08.369Z,2.70
2019-05-06T09:25:33.989Z,2.60
2019-05-06T09:29:02.252Z,3.43
2019-05-06T09:32:36.005Z,2.50
2019-05-06T09:35:59.994Z,2.63
2019-05-06T09:39:25.628Z,2.57
2019-05-06T09:42:52.089Z,3.43
2019-05-06T09:46:17.986Z,3.23
2019-05-06T09:49:44.918Z,3.60
2019-05-06T09:53:13.123Z,3.13
2019-05-06T09:56:43.469Z,3.10
2019-05-06T10:00:09.552Z,3.27
2019-05-06T10:03:36.917Z,6.70
2019-05-06T10:07:02.780Z,3.57
2019-05-06T10:10:28.589Z,2.90
2019-05-06T10:13:54.270Z,3.60
2019-05-06T10:17:19.913Z,3.60
2019-05-06T10:20:48.581Z,3.20
2019-05-06T10:24:14.218Z,3.37
2019-05-06T10:27:42.216Z,3.33
2019-05-06T10:31:09.870Z,3.23
2019-05-06T10:34:37.816Z,3.30
2019-05-06T10:38:39.706Z,3.37
2019-05-06T10:42:13.459Z,3.60
2019-05-06T10:45:39.449Z,3.83
2019-05-06T10:49:05.139Z,3.60
2019-05-06T10:52:33.305Z,4.47
2019-05-06T10:56:02.328Z,3.87
2019-05-06T10:59:28.135Z,3.70
2019-05-06T11:02:55.726Z,3.63
2019-05-06T11:06:22.132Z,4.00
2019-05-06T11:09:47.853Z,4.07
2019-05-06T11:13:13.444Z,4.20
2019-05-06T11:16:39.541Z,3.70
2019-05-06T11:20:10.238Z,3.67
2019-05-06T11:23:34.340Z,3.77
2019-05-06T11:27:03.400Z,4.10
2019-05-06T11:30:33.113Z,3.40
2019-05-06T11:34:00.599Z,3.37
2019-05-06T11:37:43.737Z,3.97
2019-05-06T11:40:57.700Z,3.83
2019-05-06T11:44:24.049Z,3.90
2019-05-06T11:47:49.905Z,4.27
2019-05-06T11:51:17.250Z,4.30
2019-05-06T11:54:42.928Z,4.30
2019-05-06T11:58:12.645Z,4.00
2019-05-06T12:01:39.279Z,4.40
2019-05-06T12:05:06.487Z,3.77
2019-05-06T12:08:33.326Z,4.27
2019-05-06T12:11:58.990Z,4.20
2019-05-06T12:15:26.123Z,4.10
2019-05-06T12:18:52.996Z,4.23
2019-05-06T12:22:18.765Z,3.77
2019-05-06T12:25:46.182Z,4.50
2019-05-06T12:29:12.668Z,4.43
2019-05-06T12:32:40.210Z,4.80
2019-05-06T12:36:12.837Z,3.93
2019-05-06T12:39:40.215Z,3.73
2019-05-06T12:43:23.682Z,3.87
2019-05-06T12:47:06.957Z,4.13
2019-05-06T12:50:33.188Z,3.80
2019-05-06T12:53:59.073Z,4.00
2019-05-06T12:57:24.669Z,4.20
2019-05-06T13:00:50.284Z,3.90
2019-05-06T13:04:16.122Z,3.90
2019-05-06T13:07:47.195Z,3.37
2019-05-06T13:11:13.295Z,3.60
2019-05-06T13:14:39.129Z,3.80
2019-05-06T13:18:07.025Z,3.47
2019-05-06T13:21:32.753Z,3.73
2019-05-06T13:24:58.593Z,3.60
2019-05-06T13:28:25.879Z,3.33
2019-05-06T13:31:53.052Z,3.93
2019-05-06T13:35:19.070Z,4.00
2019-05-06T13:38:44.656Z,4.40
2019-05-06T13:42:13.248Z,4.33
2019-05-06T13:45:42.420Z,4.33
2019-05-06T13:49:08.055Z,4.60
2019-05-06T13:52:35.298Z,4.97
2019-05-06T13:56:04.487Z,4.27
2019-05-06T13:59:30.465Z,4.20
2019-05-06T14:02:57.791Z,4.97
2019-05-06T14:06:23.462Z,4.50
2019-05-06T14:09:49.100Z,4.63
2019-05-06T14:13:15.921Z,4.47
2019-05-06T14:16:42.687Z,3.97
2019-05-06T14:20:09.270Z,4.20
2019-05-06T14:23:34.879Z,4.27
2019-05-06T14:27:11.318Z,4.60
2019-05-06T14:30:39.350Z,4.00
2019-05-06T14:34:05.015Z,4.20
2019-05-06T14:37:32.783Z,4.73
2019-05-06T14:41:07.255Z,4.40
2019-05-06T14:44:32.496Z,5.20
2019-05-06T14:47:57.138Z,4.53
2019-05-06T14:51:22.734Z,4.77
2019-05-06T14:54:53.505Z,4.13
2019-05-06T14:58:19.549Z,3.93
2019-05-06T15:01:45.790Z,4.33
2019-05-06T15:05:13.173Z,4.40
2019-05-06T15:08:39.594Z,3.97
2019-05-06T15:12:07.779Z,5.10
2019-05-06T15:15:33.997Z,4.30
2019-05-06T15:19:03.609Z,4.47
2019-05-06T15:22:29.146Z,4.30
2019-05-06T15:25:54.756Z,4.47
2019-05-06T15:29:23.480Z,4.40
2019-05-06T15:32:48.226Z,4.13
2019-05-06T15:36:22.309Z,4.57
2019-05-06T15:39:48.077Z,4.53
2019-05-06T15:43:14.169Z,4.10
2019-05-06T15:46:39.956Z,4.57
2019-05-06T15:50:07.481Z,4.23
2019-05-06T15:53:34.373Z,3.53
2019-05-06T15:57:00.003Z,3.23
2019-05-06T16:00:27.664Z,3.97
2019-05-06T16:03:53.833Z,3.90
2019-05-06T16:07:19.428Z,3.77
2019-05-06T16:10:52.420Z,4.23
2019-05-06T16:14:14.027Z,4.03
2019-05-06T16:17:39.671Z,4.07
2019-05-06T16:21:05.711Z,3.70
2019-05-06T16:24:42.830Z,3.57
2019-05-06T16:28:07.224Z,3.57
2019-05-06T16:31:34.480Z,3.57
2019-05-06T16:35:00.079Z,4.20
2019-05-06T16:38:25.697Z,3.90
2019-05-06T16:41:52.292Z,3.57
2019-05-06T16:45:19.679Z,3.70
2019-05-06T16:48:45.659Z,4.33
2019-05-06T16:52:12.977Z,3.70
2019-05-06T16:55:56.489Z,4.63
2019-05-06T16:59:23.868Z,4.00
2019-05-06T17:02:57.931Z,4.03
2019-05-06T17:06:25.110Z,3.57
2019-05-06T17:09:52.615Z,3.60
2019-05-06T17:13:18.024Z,4.20
2019-05-06T17:16:44.592Z,3.83
2019-05-06T17:20:12.199Z,3.23
2019-05-06T17:23:39.102Z,3.60
2019-05-06T17:27:05.638Z,3.77
2019-05-06T17:30:38.894Z,4.27
2019-05-06T17:34:09.620Z,4.03
2019-05-06T17:37:53.190Z,3.50
2019-05-06T17:41:19.567Z,3.50
2019-05-06T17:44:45.166Z,3.30
2019-05-06T17:48:27.520Z,3.60
2019-05-06T17:52:11.090Z,4.20
2019-05-06T17:55:36.716Z,4.03
2019-05-06T17:59:03.283Z,3.57
2019-05-06T18:02:29.346Z,3.93
2019-05-06T18:05:54.943Z,4.07
2019-05-06T18:09:22.308Z,4.63
2019-05-06T18:12:47.939Z,3.87
2019-05-06T18:16:13.628Z,4.13
2019-05-06T18:19:39.229Z,4.17
2019-05-06T18:23:06.270Z,4.47
2019-05-06T18:26:33.379Z,3.67
2019-05-06T18:30:13.426Z,4.53
2019-05-06T18:33:32.579Z,4.00
2019-05-06T18:36:58.750Z,4.30
2019-05-06T18:40:24.345Z,4.47
2019-05-06T18:43:50.199Z,4.47
2019-05-06T18:47:15.785Z,4.13
2019-05-06T18:50:42.442Z,4.33
2019-05-06T18:54:08.575Z,4.23
2019-05-06T18:57:34.347Z,4.50
2019-05-06T19:00:59.944Z,4.23
2019-05-06T19:04:42.475Z,4.03
2019-05-06T19:08:12.919Z,4.17
2019-05-06T19:11:38.561Z,4.30
2019-05-06T19:15:05.574Z,4.23
2019-05-06T19:18:31.202Z,5.10
2019-05-06T19:21:56.857Z,4.40
2019-05-06T19:25:22.795Z,4.50
2019-05-06T19:28:48.482Z,4.37
2019-05-06T19:32:15.403Z,3.93
2019-05-06T19:35:42.821Z,4.60
2019-05-06T19:39:09.436Z,4.27
2019-05-06T19:42:46.379Z,4.37
2019-05-06T19:46:02.695Z,4.07
2019-05-06T19:49:28.426Z,4.77
2019-05-06T19:52:54.046Z,4.75
2019-05-06T19:56:19.632Z,4.33
2019-05-06T19:59:45.228Z,4.03
2019-05-06T20:03:12.263Z,5.07
2019-05-06T20:06:42.090Z,4.17
2019-05-06T20:10:25.946Z,4.40
2019-05-06T20:13:52.597Z,3.97
2019-05-06T20:17:18.267Z,3.93
2019-05-06T20:20:44.686Z,3.87
2019-05-06T20:24:10.278Z,4.10
2019-05-06T20:27:35.917Z,4.50
2019-05-06T20:31:02.467Z,4.57
2019-05-06T20:34:28.232Z,4.80
2019-05-06T20:37:54.086Z,4.77
2019-05-06T20:41:22.043Z,4.37
2019-05-06T20:44:47.085Z,4.70
2019-05-06T20:48:13.040Z,4.57
2019-05-06T20:51:38.767Z,4.80
2019-05-06T20:55:12.411Z,4.97
2019-05-06T20:58:32.695Z,4.47
2019-05-06T21:01:58.821Z,5.30
2019-05-06T21:05:24.411Z,4.63
2019-05-06T21:08:50.011Z,4.97
2019-05-06T21:12:15.672Z,5.10
2019-05-06T21:15:43.280Z,4.60
2019-05-06T21:19:08.622Z,4.57
2019-05-06T21:22:34.473Z,5.07
2019-05-06T21:26:00.116Z,5.30
2019-05-06T21:29:25.714Z,4.90
2019-05-06T21:32:52.122Z,4.60
2019-05-06T21:36:17.779Z,5.13
2019-05-06T21:39:43.353Z,4.77
2019-05-06T21:43:12.835Z,4.80
2019-05-06T21:46:38.102Z,5.00
2019-05-06T21:50:04.139Z,5.20
2019-05-06T21:53:29.750Z,4.80
2019-05-06T21:56:55.418Z,5.33
2019-05-06T22:00:23.880Z,5.50
2019-05-06T22:03:51.075Z,5.07
2019-05-06T22:07:16.677Z,5.63
2019-05-06T22:10:42.412Z,4.97
2019-05-06T22:14:08.008Z,5.00
2019-05-06T22:17:33.589Z,5.27
2019-05-06T22:21:06.743Z,5.13
2019-05-06T22:24:39.705Z,5.23
2019-05-06T22:28:05.564Z,5.53
2019-05-06T22:31:33.072Z,5.37
2019-05-06T22:34:58.550Z,5.70
2019-05-06T22:38:24.131Z,5.47
2019-05-06T22:41:51.481Z,5.03
2019-05-06T22:45:17.325Z,5.27
2019-05-06T22:48:43.432Z,5.27
2019-05-06T22:52:09.073Z,5.03
2019-05-06T22:55:34.660Z,5.57
2019-05-06T22:59:00.256Z,4.93
2019-05-06T23:02:27.485Z,5.17
2019-05-06T23:05:53.091Z,5.07
2019-05-06T23:09:18.672Z,5.33
2019-05-06T23:12:44.344Z,5.00
2019-05-06T23:16:09.925Z,5.13
2019-05-06T23:19:35.576Z,5.00
2019-05-06T23:23:02.391Z,4.53
2019-05-06T23:26:28.740Z,4.67
2019-05-06T23:29:54.396Z,5.60
2019-05-06T23:33:20.023Z,4.97
2019-05-06T23:37:02.962Z,5.13
2019-05-06T23:41:24.716Z,5.03
2019-05-06T23:45:44.996Z,6.40
2019-05-06T23:50:06.179Z,5.37
2019-05-06T23:54:27.151Z,5.70
2019-05-06T23:57:52.604Z,5.97
